sensor_id;sensor_type;location;lat;lon;timestamp;P1;durP1;ratioP1;P2;durP2;ratioP2
15915;SDS011;8057;47.830;-3.870;2023-08-12T00:04:02;13.83;;;7.37;;
15915;SDS011;8057;47.830;-3.870;2023-08-12T00:08:12;33.00;;;6.67;;
15915;SDS011;8057;47.830;-3.870;2023-08-12T00:12:22;11.30;;;6.77;;
15915;SDS011;8057;47.830;-3.870;2023-08-12T00:16:33;8.13;;;5.40;;
15915;SDS011;8057;47.830;-3.870;2023-08-12T00:20:42;9.37;;;5.80;;
15915;SDS011;8057;47.830;-3.870;2023-08-12T00:24:52;3.70;;;3.40;;
15915;SDS011;8057;47.830;-3.870;2023-08-12T00:29:01;7.93;;;3.73;;
15915;SDS011;8057;47.830;-3.870;2023-08-12T00:33:13;5.60;;;4.23;;
15915;SDS011;8057;47.830;-3.870;2023-08-12T00:37:22;5.57;;;3.80;;
15915;SDS011;8057;47.830;-3.870;2023-08-12T00:41:31;5.80;;;4.00;;
15915;SDS011;8057;47.830;-3.870;2023-08-12T00:45:40;5.27;;;4.63;;
15915;SDS011;8057;47.830;-3.870;2023-08-12T00:49:52;5.03;;;4.27;;
15915;SDS011;8057;47.830;-3.870;2023-08-12T00:54:04;4.93;;;4.53;;
15915;SDS011;8057;47.830;-3.870;2023-08-12T00:58:14;6.73;;;4.60;;
15915;SDS011;8057;47.830;-3.870;2023-08-12T01:02:25;7.93;;;5.63;;
15915;SDS011;8057;47.830;-3.870;2023-08-12T01:06:36;8.43;;;5.67;;
15915;SDS011;8057;47.830;-3.870;2023-08-12T01:10:48;10.07;;;5.97;;
15915;SDS011;8057;47.830;-3.870;2023-08-12T01:15:04;8.43;;;5.90;;
15915;SDS011;8057;47.830;-3.870;2023-08-12T01:19:20;11.03;;;5.77;;
15915;SDS011;8057;47.830;-3.870;2023-08-12T01:23:38;9.00;;;6.40;;
15915;SDS011;8057;47.830;-3.870;2023-08-12T01:27:48;13.43;;;7.13;;
15915;SDS011;8057;47.830;-3.870;2023-08-12T01:31:58;15.47;;;7.87;;
15915;SDS011;8057;47.830;-3.870;2023-08-12T01:36:16;12.33;;;7.43;;
15915;SDS011;8057;47.830;-3.870;2023-08-12T01:40:29;14.80;;;7.60;;
15915;SDS011;8057;47.830;-3.870;2023-08-12T01:44:39;19.27;;;8.87;;
15915;SDS011;8057;47.830;-3.870;2023-08-12T01:48:49;17.93;;;8.43;;
15915;SDS011;8057;47.830;-3.870;2023-08-12T01:52:58;16.80;;;7.83;;
15915;SDS011;8057;47.830;-3.870;2023-08-12T01:57:09;17.43;;;7.80;;
15915;SDS011;8057;47.830;-3.870;2023-08-12T02:01:19;22.60;;;8.40;;
15915;SDS011;8057;47.830;-3.870;2023-08-12T02:05:28;18.70;;;8.13;;
15915;SDS011;8057;47.830;-3.870;2023-08-12T02:09:37;14.13;;;6.90;;
15915;SDS011;8057;47.830;-3.870;2023-08-12T02:13:48;13.07;;;6.90;;
15915;SDS011;8057;47.830;-3.870;2023-08-12T02:17:58;17.83;;;6.93;;
15915;SDS011;8057;47.830;-3.870;2023-08-12T02:22:07;17.93;;;7.67;;
15915;SDS011;8057;47.830;-3.870;2023-08-12T02:26:17;16.37;;;7.07;;
15915;SDS011;8057;47.830;-3.870;2023-08-12T02:30:28;17.10;;;6.67;;
15915;SDS011;8057;47.830;-3.870;2023-08-12T02:34:38;15.90;;;7.23;;
15915;SDS011;8057;47.830;-3.870;2023-08-12T02:38:47;14.70;;;6.07;;
15915;SDS011;8057;47.830;-3.870;2023-08-12T02:42:56;15.63;;;6.70;;
15915;SDS011;8057;47.830;-3.870;2023-08-12T02:47:07;16.17;;;6.83;;
15915;SDS011;8057;47.830;-3.870;2023-08-12T02:51:17;16.93;;;7.07;;
15915;SDS011;8057;47.830;-3.870;2023-08-12T02:55:26;16.70;;;6.70;;
15915;SDS011;8057;47.830;-3.870;2023-08-12T02:59:36;15.83;;;7.17;;
15915;SDS011;8057;47.830;-3.870;2023-08-12T03:03:47;22.57;;;6.67;;
15915;SDS011;8057;47.830;-3.870;2023-08-12T03:07:56;15.63;;;6.83;;
15915;SDS011;8057;47.830;-3.870;2023-08-12T03:12:08;23.87;;;6.37;;
15915;SDS011;8057;47.830;-3.870;2023-08-12T03:16:17;9.73;;;5.73;;
15915;SDS011;8057;47.830;-3.870;2023-08-12T03:20:28;14.33;;;4.87;;
15915;SDS011;8057;47.830;-3.870;2023-08-12T03:24:37;9.13;;;5.53;;
15915;SDS011;8057;47.830;-3.870;2023-08-12T03:28:47;14.13;;;6.20;;
15915;SDS011;8057;47.830;-3.870;2023-08-12T03:32:56;18.60;;;7.50;;
15915;SDS011;8057;47.830;-3.870;2023-08-12T03:37:07;15.93;;;7.40;;
15915;SDS011;8057;47.830;-3.870;2023-08-12T03:41:16;16.93;;;6.80;;
15915;SDS011;8057;47.830;-3.870;2023-08-12T03:45:26;16.13;;;6.37;;
15915;SDS011;8057;47.830;-3.870;2023-08-12T03:49:35;17.13;;;6.67;;
15915;SDS011;8057;47.830;-3.870;2023-08-12T03:53:46;15.27;;;5.77;;
15915;SDS011;8057;47.830;-3.870;2023-08-12T03:57:55;18.13;;;6.27;;
15915;SDS011;8057;47.830;-3.870;2023-08-12T04:02:04;20.43;;;6.97;;
15915;SDS011;8057;47.830;-3.870;2023-08-12T04:06:14;16.20;;;6.23;;
15915;SDS011;8057;47.830;-3.870;2023-08-12T04:10:27;15.53;;;6.50;;
15915;SDS011;8057;47.830;-3.870;2023-08-12T04:14:36;18.07;;;6.43;;
15915;SDS011;8057;47.830;-3.870;2023-08-12T04:18:48;18.00;;;6.37;;
15915;SDS011;8057;47.830;-3.870;2023-08-12T04:22:57;17.00;;;6.50;;
15915;SDS011;8057;47.830;-3.870;2023-08-12T04:27:08;17.10;;;5.83;;
15915;SDS011;8057;47.830;-3.870;2023-08-12T04:31:18;17.43;;;5.57;;
15915;SDS011;8057;47.830;-3.870;2023-08-12T04:35:27;16.20;;;5.37;;
15915;SDS011;8057;47.830;-3.870;2023-08-12T04:39:40;16.87;;;5.80;;
15915;SDS011;8057;47.830;-3.870;2023-08-12T04:43:51;17.97;;;5.80;;
15915;SDS011;8057;47.830;-3.870;2023-08-12T04:48:00;15.20;;;5.13;;
15915;SDS011;8057;47.830;-3.870;2023-08-12T04:52:09;14.03;;;5.63;;
15915;SDS011;8057;47.830;-3.870;2023-08-12T04:56:19;14.13;;;6.00;;
15915;SDS011;8057;47.830;-3.870;2023-08-12T05:00:30;17.40;;;5.33;;
15915;SDS011;8057;47.830;-3.870;2023-08-12T05:04:39;20.43;;;5.60;;
15915;SDS011;8057;47.830;-3.870;2023-08-12T05:08:49;16.57;;;5.40;;
15915;SDS011;8057;47.830;-3.870;2023-08-12T05:12:58;17.07;;;5.43;;
15915;SDS011;8057;47.830;-3.870;2023-08-12T05:17:09;17.37;;;5.13;;
15915;SDS011;8057;47.830;-3.870;2023-08-12T05:21:18;14.87;;;4.20;;
15915;SDS011;8057;47.830;-3.870;2023-08-12T05:25:27;17.67;;;5.03;;
15915;SDS011;8057;47.830;-3.870;2023-08-12T05:29:36;16.50;;;5.30;;
15915;SDS011;8057;47.830;-3.870;2023-08-12T05:33:47;14.13;;;4.80;;
15915;SDS011;8057;47.830;-3.870;2023-08-12T05:37:56;19.80;;;5.50;;
15915;SDS011;8057;47.830;-3.870;2023-08-12T05:42:06;16.40;;;5.47;;
15915;SDS011;8057;47.830;-3.870;2023-08-12T05:46:16;18.93;;;6.20;;
15915;SDS011;8057;47.830;-3.870;2023-08-12T05:50:27;19.73;;;5.80;;
15915;SDS011;8057;47.830;-3.870;2023-08-12T05:54:36;19.27;;;5.70;;
15915;SDS011;8057;47.830;-3.870;2023-08-12T05:58:45;19.47;;;5.43;;
15915;SDS011;8057;47.830;-3.870;2023-08-12T06:02:55;16.97;;;5.70;;
15915;SDS011;8057;47.830;-3.870;2023-08-12T06:07:06;20.10;;;5.57;;
15915;SDS011;8057;47.830;-3.870;2023-08-12T06:11:15;18.17;;;5.63;;
15915;SDS011;8057;47.830;-3.870;2023-08-12T06:15:24;21.93;;;6.13;;
15915;SDS011;8057;47.830;-3.870;2023-08-12T06:19:33;17.87;;;5.03;;
15915;SDS011;8057;47.830;-3.870;2023-08-12T06:23:45;15.70;;;5.13;;
15915;SDS011;8057;47.830;-3.870;2023-08-12T06:27:54;20.77;;;5.53;;
15915;SDS011;8057;47.830;-3.870;2023-08-12T06:32:05;20.23;;;5.43;;
15915;SDS011;8057;47.830;-3.870;2023-08-12T06:36:15;20.60;;;6.00;;
15915;SDS011;8057;47.830;-3.870;2023-08-12T06:40:25;24.13;;;6.80;;
15915;SDS011;8057;47.830;-3.870;2023-08-12T06:44:35;19.67;;;5.70;;
15915;SDS011;8057;47.830;-3.870;2023-08-12T06:48:44;18.43;;;5.03;;
15915;SDS011;8057;47.830;-3.870;2023-08-12T06:52:54;22.70;;;5.93;;
15915;SDS011;8057;47.830;-3.870;2023-08-12T06:57:05;22.30;;;5.60;;
15915;SDS011;8057;47.830;-3.870;2023-08-12T07:01:14;21.90;;;6.13;;
15915;SDS011;8057;47.830;-3.870;2023-08-12T07:05:23;26.23;;;6.03;;
15915;SDS011;8057;47.830;-3.870;2023-08-12T07:09:33;21.43;;;5.53;;
15915;SDS011;8057;47.830;-3.870;2023-08-12T07:13:43;32.60;;;6.70;;
15915;SDS011;8057;47.830;-3.870;2023-08-12T07:17:53;19.03;;;5.83;;
15915;SDS011;8057;47.830;-3.870;2023-08-12T07:22:02;16.70;;;5.67;;
15915;SDS011;8057;47.830;-3.870;2023-08-12T07:26:12;22.00;;;5.50;;
15915;SDS011;8057;47.830;-3.870;2023-08-12T07:30:22;26.83;;;6.40;;
15915;SDS011;8057;47.830;-3.870;2023-08-12T07:34:32;21.27;;;5.87;;
15915;SDS011;8057;47.830;-3.870;2023-08-12T07:38:44;28.80;;;6.40;;
15915;SDS011;8057;47.830;-3.870;2023-08-12T07:42:53;22.07;;;5.23;;
15915;SDS011;8057;47.830;-3.870;2023-08-12T07:47:03;22.87;;;6.03;;
15915;SDS011;8057;47.830;-3.870;2023-08-12T07:51:13;35.73;;;6.33;;
15915;SDS011;8057;47.830;-3.870;2023-08-12T07:55:22;28.07;;;6.53;;
15915;SDS011;8057;47.830;-3.870;2023-08-12T07:59:33;29.00;;;6.17;;
15915;SDS011;8057;47.830;-3.870;2023-08-12T08:03:46;20.27;;;6.63;;
15915;SDS011;8057;47.830;-3.870;2023-08-12T08:07:59;26.83;;;6.67;;
15915;SDS011;8057;47.830;-3.870;2023-08-12T08:12:10;25.50;;;5.97;;
15915;SDS011;8057;47.830;-3.870;2023-08-12T08:16:20;27.73;;;7.10;;
15915;SDS011;8057;47.830;-3.870;2023-08-12T08:20:31;24.50;;;6.07;;
15915;SDS011;8057;47.830;-3.870;2023-08-12T08:24:40;20.77;;;5.17;;
15915;SDS011;8057;47.830;-3.870;2023-08-12T08:28:49;27.33;;;6.30;;
15915;SDS011;8057;47.830;-3.870;2023-08-12T08:32:59;24.77;;;5.73;;
15915;SDS011;8057;47.830;-3.870;2023-08-12T08:37:10;25.57;;;5.40;;
15915;SDS011;8057;47.830;-3.870;2023-08-12T08:41:19;15.60;;;5.33;;
15915;SDS011;8057;47.830;-3.870;2023-08-12T08:45:29;24.10;;;5.70;;
15915;SDS011;8057;47.830;-3.870;2023-08-12T08:49:41;19.10;;;4.90;;
15915;SDS011;8057;47.830;-3.870;2023-08-12T08:53:52;24.57;;;5.17;;
15915;SDS011;8057;47.830;-3.870;2023-08-12T08:58:08;26.53;;;6.03;;
15915;SDS011;8057;47.830;-3.870;2023-08-12T09:02:26;20.70;;;5.13;;
15915;SDS011;8057;47.830;-3.870;2023-08-12T09:06:35;19.93;;;5.40;;
15915;SDS011;8057;47.830;-3.870;2023-08-12T09:10:48;19.50;;;5.67;;
15915;SDS011;8057;47.830;-3.870;2023-08-12T09:14:59;21.87;;;6.00;;
15915;SDS011;8057;47.830;-3.870;2023-08-12T09:19:08;17.70;;;4.80;;
15915;SDS011;8057;47.830;-3.870;2023-08-12T09:23:17;19.17;;;4.93;;
15915;SDS011;8057;47.830;-3.870;2023-08-12T09:27:31;20.87;;;5.90;;
15915;SDS011;8057;47.830;-3.870;2023-08-12T09:31:42;17.63;;;5.43;;
15915;SDS011;8057;47.830;-3.870;2023-08-12T09:35:51;18.77;;;5.43;;
15915;SDS011;8057;47.830;-3.870;2023-08-12T09:45:24;16.60;;;4.67;;
15915;SDS011;8057;47.830;-3.870;2023-08-12T09:49:52;18.57;;;4.60;;
15915;SDS011;8057;47.830;-3.870;2023-08-12T09:54:06;13.70;;;4.13;;
15915;SDS011;8057;47.830;-3.870;2023-08-12T10:08:08;13.33;;;4.73;;
15915;SDS011;8057;47.830;-3.870;2023-08-12T10:12:18;15.37;;;4.73;;
15915;SDS011;8057;47.830;-3.870;2023-08-12T10:16:28;16.97;;;5.33;;
15915;SDS011;8057;47.830;-3.870;2023-08-12T10:20:38;15.43;;;4.87;;
15915;SDS011;8057;47.830;-3.870;2023-08-12T10:24:49;19.53;;;4.73;;
15915;SDS011;8057;47.830;-3.870;2023-08-12T10:28:59;17.60;;;4.37;;
15915;SDS011;8057;47.830;-3.870;2023-08-12T10:33:16;15.67;;;4.50;;
15915;SDS011;8057;47.830;-3.870;2023-08-12T10:38:01;15.07;;;5.17;;
15915;SDS011;8057;47.830;-3.870;2023-08-12T10:42:27;17.80;;;4.87;;
15915;SDS011;8057;47.830;-3.870;2023-08-12T10:46:50;16.17;;;4.50;;
15915;SDS011;8057;47.830;-3.870;2023-08-12T10:51:11;16.63;;;4.23;;
15915;SDS011;8057;47.830;-3.870;2023-08-12T10:55:21;12.97;;;4.57;;
15915;SDS011;8057;47.830;-3.870;2023-08-12T10:59:52;20.23;;;5.50;;
15915;SDS011;8057;47.830;-3.870;2023-08-12T11:04:10;16.53;;;4.23;;
15915;SDS011;8057;47.830;-3.870;2023-08-12T11:08:26;12.93;;;4.77;;
15915;SDS011;8057;47.830;-3.870;2023-08-12T11:12:38;13.53;;;4.70;;
15915;SDS011;8057;47.830;-3.870;2023-08-12T11:16:50;27.10;;;5.57;;
15915;SDS011;8057;47.830;-3.870;2023-08-12T11:21:07;19.27;;;5.00;;
15915;SDS011;8057;47.830;-3.870;2023-08-12T11:25:17;17.27;;;4.43;;
15915;SDS011;8057;47.830;-3.870;2023-08-12T11:29:27;14.83;;;4.80;;
15915;SDS011;8057;47.830;-3.870;2023-08-12T11:33:38;14.90;;;4.83;;
15915;SDS011;8057;47.830;-3.870;2023-08-12T11:37:48;20.37;;;5.37;;
15915;SDS011;8057;47.830;-3.870;2023-08-12T11:42:00;17.30;;;5.57;;
15915;SDS011;8057;47.830;-3.870;2023-08-12T11:46:09;19.37;;;5.43;;
15915;SDS011;8057;47.830;-3.870;2023-08-12T11:50:20;21.73;;;5.73;;
15915;SDS011;8057;47.830;-3.870;2023-08-12T11:54:31;16.10;;;4.73;;
15915;SDS011;8057;47.830;-3.870;2023-08-12T11:58:41;18.03;;;5.30;;
15915;SDS011;8057;47.830;-3.870;2023-08-12T12:02:59;21.33;;;4.73;;
15915;SDS011;8057;47.830;-3.870;2023-08-12T12:07:20;17.50;;;5.70;;
15915;SDS011;8057;47.830;-3.870;2023-08-12T12:11:30;17.00;;;5.33;;
15915;SDS011;8057;47.830;-3.870;2023-08-12T12:15:41;17.83;;;5.03;;
15915;SDS011;8057;47.830;-3.870;2023-08-12T12:19:54;19.70;;;4.10;;
15915;SDS011;8057;47.830;-3.870;2023-08-12T12:24:06;16.63;;;5.87;;
15915;SDS011;8057;47.830;-3.870;2023-08-12T12:28:16;18.10;;;4.77;;
15915;SDS011;8057;47.830;-3.870;2023-08-12T12:32:25;16.80;;;4.60;;
15915;SDS011;8057;47.830;-3.870;2023-08-12T12:36:36;18.07;;;5.27;;
15915;SDS011;8057;47.830;-3.870;2023-08-12T12:40:48;21.03;;;4.80;;
15915;SDS011;8057;47.830;-3.870;2023-08-12T12:45:16;15.90;;;4.23;;
15915;SDS011;8057;47.830;-3.870;2023-08-12T12:49:26;14.43;;;4.23;;
15915;SDS011;8057;47.830;-3.870;2023-08-12T12:53:35;15.73;;;4.67;;
15915;SDS011;8057;47.830;-3.870;2023-08-12T12:57:46;16.73;;;4.83;;
15915;SDS011;8057;47.830;-3.870;2023-08-12T13:01:56;17.37;;;4.87;;
15915;SDS011;8057;47.830;-3.870;2023-08-12T13:06:06;15.27;;;4.13;;
15915;SDS011;8057;47.830;-3.870;2023-08-12T13:10:54;17.77;;;5.57;;
15915;SDS011;8057;47.830;-3.870;2023-08-12T13:15:07;19.73;;;5.03;;
15915;SDS011;8057;47.830;-3.870;2023-08-12T13:19:17;20.13;;;5.27;;
15915;SDS011;8057;47.830;-3.870;2023-08-12T13:23:26;18.43;;;4.13;;
15915;SDS011;8057;47.830;-3.870;2023-08-12T13:27:35;18.47;;;5.07;;
15915;SDS011;8057;47.830;-3.870;2023-08-12T13:31:47;15.23;;;4.33;;
15915;SDS011;8057;47.830;-3.870;2023-08-12T13:35:56;19.43;;;5.33;;
15915;SDS011;8057;47.830;-3.870;2023-08-12T13:40:06;15.97;;;4.77;;
15915;SDS011;8057;47.830;-3.870;2023-08-12T13:44:17;17.80;;;4.93;;
15915;SDS011;8057;47.830;-3.870;2023-08-12T13:48:27;17.47;;;4.93;;
15915;SDS011;8057;47.830;-3.870;2023-08-12T13:52:37;19.53;;;4.50;;
15915;SDS011;8057;47.830;-3.870;2023-08-12T13:56:46;12.93;;;4.40;;
15915;SDS011;8057;47.830;-3.870;2023-08-12T14:00:56;19.77;;;4.70;;
15915;SDS011;8057;47.830;-3.870;2023-08-12T14:05:07;19.60;;;5.07;;
15915;SDS011;8057;47.830;-3.870;2023-08-12T14:09:18;19.83;;;5.27;;
15915;SDS011;8057;47.830;-3.870;2023-08-12T14:13:27;17.57;;;5.33;;
15915;SDS011;8057;47.830;-3.870;2023-08-12T14:17:37;12.17;;;4.33;;
15915;SDS011;8057;47.830;-3.870;2023-08-12T14:21:48;14.77;;;4.73;;
15915;SDS011;8057;47.830;-3.870;2023-08-12T14:25:57;16.83;;;4.27;;
15915;SDS011;8057;47.830;-3.870;2023-08-12T14:30:07;15.53;;;3.77;;
15915;SDS011;8057;47.830;-3.870;2023-08-12T14:34:17;13.37;;;4.37;;
15915;SDS011;8057;47.830;-3.870;2023-08-12T14:38:28;11.90;;;3.53;;
15915;SDS011;8057;47.830;-3.870;2023-08-12T14:42:38;14.07;;;4.30;;
15915;SDS011;8057;47.830;-3.870;2023-08-12T14:46:49;10.13;;;3.40;;
15915;SDS011;8057;47.830;-3.870;2023-08-12T14:51:18;14.47;;;4.30;;
15915;SDS011;8057;47.830;-3.870;2023-08-12T14:55:29;13.07;;;3.63;;
15915;SDS011;8057;47.830;-3.870;2023-08-12T14:59:39;14.87;;;4.13;;
15915;SDS011;8057;47.830;-3.870;2023-08-12T15:03:48;11.57;;;3.60;;
15915;SDS011;8057;47.830;-3.870;2023-08-12T15:07:57;12.10;;;3.77;;
15915;SDS011;8057;47.830;-3.870;2023-08-12T15:12:12;12.80;;;3.87;;
15915;SDS011;8057;47.830;-3.870;2023-08-12T15:16:21;13.13;;;3.73;;
15915;SDS011;8057;47.830;-3.870;2023-08-12T15:20:30;14.70;;;3.20;;
15915;SDS011;8057;47.830;-3.870;2023-08-12T15:24:39;13.07;;;4.40;;
15915;SDS011;8057;47.830;-3.870;2023-08-12T15:28:50;10.80;;;3.70;;
15915;SDS011;8057;47.830;-3.870;2023-08-12T15:33:00;12.03;;;3.63;;
15915;SDS011;8057;47.830;-3.870;2023-08-12T15:37:09;17.63;;;5.17;;
15915;SDS011;8057;47.830;-3.870;2023-08-12T15:41:18;12.17;;;3.63;;
15915;SDS011;8057;47.830;-3.870;2023-08-12T15:45:30;13.53;;;3.87;;
15915;SDS011;8057;47.830;-3.870;2023-08-12T15:49:39;12.07;;;4.13;;
15915;SDS011;8057;47.830;-3.870;2023-08-12T15:53:48;12.97;;;3.93;;
15915;SDS011;8057;47.830;-3.870;2023-08-12T15:57:59;14.30;;;3.80;;
15915;SDS011;8057;47.830;-3.870;2023-08-12T16:02:09;14.57;;;4.03;;
15915;SDS011;8057;47.830;-3.870;2023-08-12T16:06:19;14.50;;;4.33;;
15915;SDS011;8057;47.830;-3.870;2023-08-12T16:10:29;16.60;;;4.10;;
15915;SDS011;8057;47.830;-3.870;2023-08-12T16:14:39;13.13;;;3.47;;
15915;SDS011;8057;47.830;-3.870;2023-08-12T16:18:49;14.90;;;4.20;;
15915;SDS011;8057;47.830;-3.870;2023-08-12T16:22:58;18.93;;;4.47;;
15915;SDS011;8057;47.830;-3.870;2023-08-12T16:27:08;14.03;;;4.13;;
15915;SDS011;8057;47.830;-3.870;2023-08-12T16:31:17;15.17;;;3.80;;
15915;SDS011;8057;47.830;-3.870;2023-08-12T16:35:28;14.50;;;4.10;;
15915;SDS011;8057;47.830;-3.870;2023-08-12T16:39:37;12.67;;;4.43;;
15915;SDS011;8057;47.830;-3.870;2023-08-12T16:43:46;19.27;;;4.03;;
15915;SDS011;8057;47.830;-3.870;2023-08-12T16:47:55;16.23;;;4.17;;
15915;SDS011;8057;47.830;-3.870;2023-08-12T16:52:06;14.87;;;4.33;;
15915;SDS011;8057;47.830;-3.870;2023-08-12T16:56:16;13.97;;;4.17;;
15915;SDS011;8057;47.830;-3.870;2023-08-12T17:00:25;12.63;;;3.90;;
15915;SDS011;8057;47.830;-3.870;2023-08-12T17:04:35;11.03;;;3.77;;
15915;SDS011;8057;47.830;-3.870;2023-08-12T17:08:46;13.47;;;4.17;;
15915;SDS011;8057;47.830;-3.870;2023-08-12T17:12:55;13.97;;;4.37;;
15915;SDS011;8057;47.830;-3.870;2023-08-12T17:17:04;20.37;;;5.03;;
15915;SDS011;8057;47.830;-3.870;2023-08-12T17:21:13;18.40;;;4.97;;
15915;SDS011;8057;47.830;-3.870;2023-08-12T17:25:24;15.50;;;4.37;;
15915;SDS011;8057;47.830;-3.870;2023-08-12T17:29:33;13.90;;;4.17;;
15915;SDS011;8057;47.830;-3.870;2023-08-12T17:33:46;13.73;;;4.17;;
15915;SDS011;8057;47.830;-3.870;2023-08-12T17:38:15;19.03;;;4.37;;
15915;SDS011;8057;47.830;-3.870;2023-08-12T17:42:26;16.40;;;4.70;;
15915;SDS011;8057;47.830;-3.870;2023-08-12T17:46:35;15.00;;;4.67;;
15915;SDS011;8057;47.830;-3.870;2023-08-12T17:50:46;18.97;;;4.63;;
15915;SDS011;8057;47.830;-3.870;2023-08-12T17:54:55;16.10;;;4.50;;
15915;SDS011;8057;47.830;-3.870;2023-08-12T17:59:06;18.90;;;5.03;;
15915;SDS011;8057;47.830;-3.870;2023-08-12T18:03:15;14.90;;;3.53;;
15915;SDS011;8057;47.830;-3.870;2023-08-12T18:07:26;16.37;;;4.17;;
15915;SDS011;8057;47.830;-3.870;2023-08-12T18:11:36;15.83;;;4.60;;
15915;SDS011;8057;47.830;-3.870;2023-08-12T18:15:47;15.23;;;4.87;;
15915;SDS011;8057;47.830;-3.870;2023-08-12T18:19:57;16.40;;;4.07;;
15915;SDS011;8057;47.830;-3.870;2023-08-12T18:24:07;16.87;;;4.33;;
15915;SDS011;8057;47.830;-3.870;2023-08-12T18:28:17;20.20;;;4.10;;
15915;SDS011;8057;47.830;-3.870;2023-08-12T18:32:27;19.33;;;4.57;;
15915;SDS011;8057;47.830;-3.870;2023-08-12T18:36:37;16.37;;;3.97;;
15915;SDS011;8057;47.830;-3.870;2023-08-12T18:40:47;12.33;;;3.93;;
15915;SDS011;8057;47.830;-3.870;2023-08-12T18:44:56;19.03;;;4.73;;
15915;SDS011;8057;47.830;-3.870;2023-08-12T18:49:06;16.47;;;4.53;;
15915;SDS011;8057;47.830;-3.870;2023-08-12T18:53:16;17.87;;;4.70;;
15915;SDS011;8057;47.830;-3.870;2023-08-12T18:57:25;16.70;;;4.83;;
15915;SDS011;8057;47.830;-3.870;2023-08-12T19:01:36;14.13;;;4.70;;
15915;SDS011;8057;47.830;-3.870;2023-08-12T19:05:47;16.60;;;5.13;;
15915;SDS011;8057;47.830;-3.870;2023-08-12T19:09:56;17.43;;;4.57;;
15915;SDS011;8057;47.830;-3.870;2023-08-12T19:14:05;16.10;;;4.80;;
15915;SDS011;8057;47.830;-3.870;2023-08-12T19:18:15;14.07;;;4.80;;
15915;SDS011;8057;47.830;-3.870;2023-08-12T19:22:26;18.60;;;4.57;;
15915;SDS011;8057;47.830;-3.870;2023-08-12T19:26:35;16.07;;;4.20;;
15915;SDS011;8057;47.830;-3.870;2023-08-12T19:30:47;17.73;;;4.50;;
15915;SDS011;8057;47.830;-3.870;2023-08-12T19:34:57;16.30;;;4.37;;
15915;SDS011;8057;47.830;-3.870;2023-08-12T19:39:08;16.30;;;4.67;;
15915;SDS011;8057;47.830;-3.870;2023-08-12T19:43:18;16.17;;;3.70;;
15915;SDS011;8057;47.830;-3.870;2023-08-12T19:47:27;12.43;;;3.93;;
15915;SDS011;8057;47.830;-3.870;2023-08-12T19:51:36;12.90;;;3.73;;
15915;SDS011;8057;47.830;-3.870;2023-08-12T19:55:47;16.60;;;4.17;;
15915;SDS011;8057;47.830;-3.870;2023-08-12T19:59:57;18.30;;;4.43;;
15915;SDS011;8057;47.830;-3.870;2023-08-12T20:04:06;14.13;;;4.00;;
15915;SDS011;8057;47.830;-3.870;2023-08-12T20:08:15;13.20;;;3.70;;
15915;SDS011;8057;47.830;-3.870;2023-08-12T20:12:26;17.53;;;4.03;;
15915;SDS011;8057;47.830;-3.870;2023-08-12T20:16:35;13.13;;;3.93;;
15915;SDS011;8057;47.830;-3.870;2023-08-12T20:20:44;12.53;;;3.80;;
15915;SDS011;8057;47.830;-3.870;2023-08-12T20:24:55;10.33;;;3.37;;
15915;SDS011;8057;47.830;-3.870;2023-08-12T20:29:06;13.07;;;3.40;;
15915;SDS011;8057;47.830;-3.870;2023-08-12T20:33:15;12.43;;;3.60;;
15915;SDS011;8057;47.830;-3.870;2023-08-12T20:37:25;11.07;;;3.30;;
15915;SDS011;8057;47.830;-3.870;2023-08-12T20:41:34;17.57;;;4.00;;
15915;SDS011;8057;47.830;-3.870;2023-08-12T20:45:46;10.50;;;3.37;;
15915;SDS011;8057;47.830;-3.870;2023-08-12T20:49:56;14.30;;;3.17;;
15915;SDS011;8057;47.830;-3.870;2023-08-12T20:54:06;11.30;;;2.80;;
15915;SDS011;8057;47.830;-3.870;2023-08-12T20:58:15;15.87;;;4.00;;
15915;SDS011;8057;47.830;-3.870;2023-08-12T21:02:26;12.20;;;3.80;;
15915;SDS011;8057;47.830;-3.870;2023-08-12T21:06:35;13.23;;;3.60;;
15915;SDS011;8057;47.830;-3.870;2023-08-12T21:10:50;12.50;;;3.43;;
15915;SDS011;8057;47.830;-3.870;2023-08-12T21:14:59;17.10;;;3.57;;
15915;SDS011;8057;47.830;-3.870;2023-08-12T21:19:11;9.90;;;3.10;;
15915;SDS011;8057;47.830;-3.870;2023-08-12T21:23:22;12.83;;;3.90;;
15915;SDS011;8057;47.830;-3.870;2023-08-12T21:27:31;15.13;;;3.67;;
15915;SDS011;8057;47.830;-3.870;2023-08-12T21:31:40;15.90;;;3.73;;
15915;SDS011;8057;47.830;-3.870;2023-08-12T21:35:51;15.90;;;4.77;;
15915;SDS011;8057;47.830;-3.870;2023-08-12T21:40:02;15.50;;;3.80;;
15915;SDS011;8057;47.830;-3.870;2023-08-12T21:44:18;9.43;;;3.20;;
15915;SDS011;8057;47.830;-3.870;2023-08-12T21:48:27;9.90;;;3.20;;
15915;SDS011;8057;47.830;-3.870;2023-08-12T21:52:38;13.40;;;4.27;;
15915;SDS011;8057;47.830;-3.870;2023-08-12T21:56:47;14.37;;;3.70;;
15915;SDS011;8057;47.830;-3.870;2023-08-12T22:00:57;16.80;;;3.83;;
15915;SDS011;8057;47.830;-3.870;2023-08-12T22:05:08;11.17;;;3.50;;
15915;SDS011;8057;47.830;-3.870;2023-08-12T22:09:18;16.43;;;4.03;;
15915;SDS011;8057;47.830;-3.870;2023-08-12T22:13:28;12.23;;;3.23;;
15915;SDS011;8057;47.830;-3.870;2023-08-12T22:17:37;10.33;;;3.23;;
15915;SDS011;8057;47.830;-3.870;2023-08-12T22:21:46;11.03;;;3.30;;
15915;SDS011;8057;47.830;-3.870;2023-08-12T22:25:57;12.37;;;3.50;;
15915;SDS011;8057;47.830;-3.870;2023-08-12T22:30:07;13.47;;;3.50;;
15915;SDS011;8057;47.830;-3.870;2023-08-12T22:34:16;13.97;;;4.17;;
15915;SDS011;8057;47.830;-3.870;2023-08-12T22:38:26;18.90;;;4.23;;
15915;SDS011;8057;47.830;-3.870;2023-08-12T22:42:37;10.90;;;3.33;;
15915;SDS011;8057;47.830;-3.870;2023-08-12T22:46:46;14.03;;;4.23;;
15915;SDS011;8057;47.830;-3.870;2023-08-12T22:50:55;13.03;;;4.07;;
15915;SDS011;8057;47.830;-3.870;2023-08-12T22:55:05;14.17;;;3.90;;
15915;SDS011;8057;47.830;-3.870;2023-08-12T22:59:16;11.63;;;3.60;;
15915;SDS011;8057;47.830;-3.870;2023-08-12T23:03:25;16.10;;;4.03;;
15915;SDS011;8057;47.830;-3.870;2023-08-12T23:07:35;13.37;;;4.27;;
15915;SDS011;8057;47.830;-3.870;2023-08-12T23:11:44;11.83;;;4.07;;
15915;SDS011;8057;47.830;-3.870;2023-08-12T23:15:55;16.73;;;4.17;;
15915;SDS011;8057;47.830;-3.870;2023-08-12T23:20:04;16.37;;;3.83;;
15915;SDS011;8057;47.830;-3.870;2023-08-12T23:24:14;13.77;;;3.90;;
15915;SDS011;8057;47.830;-3.870;2023-08-12T23:28:24;16.37;;;3.87;;
15915;SDS011;8057;47.830;-3.870;2023-08-12T23:32:35;16.10;;;3.43;;
15915;SDS011;8057;47.830;-3.870;2023-08-12T23:36:44;14.27;;;3.50;;
15915;SDS011;8057;47.830;-3.870;2023-08-12T23:40:53;12.17;;;3.40;;
15915;SDS011;8057;47.830;-3.870;2023-08-12T23:45:03;14.37;;;3.77;;
15915;SDS011;8057;47.830;-3.870;2023-08-12T23:49:16;10.53;;;3.63;;
15915;SDS011;8057;47.830;-3.870;2023-08-12T23:53:26;9.97;;;2.90;;
15915;SDS011;8057;47.830;-3.870;2023-08-12T23:57:36;14.07;;;3.00;;
